Startpagina
METAR-TAF:

METAR-TAF

Vliegvelden :

Aéroport de Lille-Lesquin

Rijsel, Frankrijk

breedte: 50-34N, lengte: 003-06E, hoogte: 48 m

Actueel weer

Dit bericht is 54 minuten geleden gemaakt, om 05:00 UTC
Wind 7 kt uit het noordnoordwesten
Temperatuur 3°C
Vochtigheid 93%
Druk 1026 hPa
Zicht 10 km of meer
geen wolken onder 1500 m en geen cumulonimbus

METAR: LFQQ 220500Z AUTO 34007KT CAVOK 03/02 Q1026 NOSIG

Tijdstip: 07:54 (05:54 UTC)

Verwachting

Dit bericht is 54 minuten geleden gemaakt, om 05:00 UTC
Verwachting geldig van 22 om 06 UTC tot 23 om 12 UTC
Wind 6 kt uit het noorden
Zicht 10 km of meer
geen wolken onder 1500 m en geen cumulonimbus
Kans 30% :
Tijdelijke
van 22 om 09 UTC tot 22 om 20 UTC
Wind 15 kt uit het noorden met uitschieters tot 25 kt
Zicht: 4500 m
Gebroken wolken op 3000 ft, Stapelwolken.
regenbuien,

TAF: LFQQ 220500Z 2206/2312 36006KT CAVOK PROB30 TEMPO 2209/2220 01015G25KT 4500 SHRA BKN030TCU

Waarnemingen en weersverwachtingen van meer dan 4000 vliegvelden (METAR en TAF).

De beschikbare stations zijn de gele en rode punten op de kaart.

Ga met uw muis naar het station om de naam te zien.

Klik dan om waarnemingen en weersverwachtingen te zien.

kaart wijzigen: klik op de groene knoppen met een zwart kruis om in te zoomen, op de groene knop met een streepje om uit te zoomen of op de groene pijlen voor aangrenzende kaarten.


METAR-TAF: